Huvudsida
METAR-TAF:

METAR-TAF

Flygplatser :

Namsos, Norge

Namsos flygplats. Høknesøra

latitud: 64-28N, longitud: 011-35E, höjd: 0 m

Aktuellt väderrapport

Denna rapport gjordes för 6 timmar och 9 minuter sedan, klockan 21:20 UTC
Vind 16 kt från ost
Temperatur -5°C
Fuktighet 63%
Tryck 996 hPa
Sikt 10 km eller mer
Inga moln under 1 500 m eller inga cumulonimbus

METAR: ENNM 182120Z 10016KT CAVOK M05/M11 Q0996

Tid: 04:29 (03:29 UTC)


TAF: saknas

Aktuella väderrapporter och prognoser från 4000 flygplatser (METAR- och TAF-rapporter).

De tillgängliga stationerna syns som gula och röda prickar på kartan.

För musen över prickarna för att se namnen på stationerna.

Klicka sedan för att få väderrapporter och prognoser.

För att ändra kartan: Klicka på de gröna knapparna med ett svart kors på för att zooma in; den gröna knappen med ett streck på för att zooma ut; eller på de gröna pilarna för angränsande kartor.


METAR-TAF: